Latest Coastal Weather Observations for Merimbula

IDN60701

Issued at 9:15 am EDT Saturday 1 November 2014 (issued every 10 minutes, with the page automatically refreshed every 10 minutes)

About coastal observations | Map of coastal stations | Coastal observations for NSW | Marine services | Other Formats
Station Details ID: 069147 Name: MERIMBULA AIRPORT AWS Lat: -36.91 Lon: 149.90 Height: 1.5 m
Data from the previous 72 hours. | See also: Recent months at Merimbula
Date/Time
EDT
Temp

°C
Wind Pressure Rain
since 9am
mm
Weather Cloud Vis
km
Sea
Height
m
Swell
Dir
 
Speed
knots
Gust
knots
hPa Trend Height
m
Period
s
Dir
01/09:00am 21.4 SE 11 19 998.6 - 0.0 - - 10 - - - -
01/08:42am 22.5 ESE 15 19 998.5 - 0.0 - - 10 - - - -
01/08:30am 27.7 NW 15 23 998.4 - 0.0 - - 10 - - - -
01/08:03am 27.3 NW 18 29 996.5 - 0.0 - - 10 - - - -
01/08:00am 27.0 NW 18 24 996.4 - 0.0 - - 10 - - - -
01/07:42am 27.3 NW 19 29 996.3 - 0.0 - - 10 - - - -
01/07:30am 26.3 NW 20 29 996.2 - 0.0 - - 10 - - - -
01/07:26am 26.4 NW 19 29 996.1 - 0.0 - - 10 - - - -
01/07:00am 24.3 NNW 15 20 996.5 - 0.0 - - 10 - - - -
01/06:30am 19.9 NNW 12 18 997.0 - 0.0 - - 10 - - - -
01/06:00am 15.4 NE 5 10 997.2 - 0.0 - Cloudy 10 - - - -
01/05:30am 13.6 CALM 0 0 997.7 - 0.0 - - 9 - - - -
01/05:19am 13.7 CALM 0 0 997.6 - 0.0 - - 7 - - - -
01/05:05am 13.3 CALM 0 0 997.6 - 0.0 - - 5 - - - -
01/05:00am 13.5 CALM 0 0 997.6 - 0.0 - - 6 - - - -
01/04:30am 14.1 CALM 0 0 997.8 - 0.0 - - 8 - - - -
01/04:22am 14.2 CALM 0 0 997.9 - 0.0 - - 7 - - - -
01/04:00am 13.8 CALM 0 0 998.0 - 0.0 - - 5 - - - -
01/03:41am 14.3 CALM 0 0 998.7 - 0.0 - - 5 - - - -
01/03:30am 15.0 CALM 0 0 998.5 - 0.0 - - 8 - - - -
01/03:00am 15.3 CALM 0 0 999.0 - 0.0 - Mostly cloudy 6 - - - -
01/02:44am 15.3 CALM 0 0 999.1 - 0.0 - - 6 - - - -
01/02:30am 15.3 CALM 0 0 999.4 - 0.0 - - 5 - - - -
01/02:00am 15.2 CALM 0 0 1000.2 - 0.0 - Partly cloudy 5 - - - -
01/01:53am 15.1 CALM 0 0 1000.3 - 0.0 - Partly cloudy 5 - - - -
01/01:46am 15.4 CALM 0 0 1000.5 - 0.0 - Partly cloudy 5 - - - -
01/01:30am 15.7 CALM 0 0 1000.8 - 0.0 - Cloudy 6 - - - -
01/01:17am 15.7 CALM 0 0 1001.0 - 0.0 - Partly cloudy 6 - - - -
01/01:06am 15.7 CALM 0 0 1001.2 - 0.0 - Partly cloudy 5 - - - -
01/01:00am 15.1 NNE 0 0 1001.4 - 0.0 - Partly cloudy 4 - - - -
01/12:30am 15.3 CALM 0 0 1001.9 - 0.0 - Partly cloudy 3 - - - -
01/12:00am 15.8 SSW 3 6 1002.5 - 0.0 - Partly cloudy 4 - - - -
 
Date/Time
EDT
Temp

°C
Wind Pressure Rain
since 9am
mm
Weather Cloud Vis
km
Sea
Height
m
Swell
Dir
 
Speed
knots
Gust
knots
hPa Trend Height
m
Period
s
Dir
31/11:30pm 16.1 NW 2 7 1002.9 - 0.0 - - 4 - - - -
31/11:00pm 16.0 CALM 0 0 1003.3 - 0.0 - - 6 - - - -
31/10:30pm 15.6 CALM 0 0 1003.9 - 0.0 - - 4 - - - -
31/10:00pm 16.3 CALM 0 0 1004.1 - 0.0 - - 4 - - - -
31/09:30pm 16.7 CALM 0 0 1004.4 - 0.0 - - 5 - - - -
31/09:11pm 16.9 CALM 0 0 1004.8 - 0.0 - - 5 - - - -
31/09:00pm 17.6 CALM 0 0 1004.8 - 0.0 - Partly cloudy 7 - - - -
31/08:30pm 18.1 CALM 0 0 1004.9 - 0.0 - - 8 - - - -
31/08:00pm 18.2 CALM 0 0 1005.1 - 0.0 - - 7 - - - -
31/07:30pm 18.5 CALM 0 0 1005.2 - 0.0 - - 8 - - - -
31/07:00pm 18.8 ESE 4 6 1005.2 - 0.0 - - 9 - - - -
31/06:30pm 19.0 ESE 5 7 1005.1 - 0.0 - - 10 - - - -
31/06:00pm 19.4 ESE 6 7 1005.1 - 0.0 - Mostly cloudy 10 - - - -
31/05:30pm 20.2 ESE 6 8 1005.3 - 0.0 - - 10 - - - -
31/05:00pm 20.9 E 7 10 1005.4 - 0.0 - - 10 - - - -
31/04:30pm 21.4 NE 7 11 1005.5 - 0.0 - - 10 - - - -
31/04:00pm 21.3 NE 8 11 1005.8 - 0.0 - - 10 - - - -
31/03:30pm 21.4 NE 8 12 1006.3 - 0.0 - - 10 - - - -
31/03:00pm 20.6 NE 7 12 1006.7 - 0.0 - - 10 - - - -
31/02:30pm 20.6 NE 9 14 1007.0 - 0.0 - - 10 - - - -
31/02:00pm 20.3 NE 12 16 1007.4 - 0.0 - - 10 - - - -
31/01:30pm 21.0 ENE 13 18 1007.7 - 0.0 - - 10 - - - -
31/01:00pm 21.8 ENE 11 15 1008.0 - 0.0 - - 10 - - - -
31/12:30pm 21.1 NE 11 16 1008.4 - 0.0 - - 10 - - - -
31/12:00pm 21.0 NE 13 19 1009.1 - 0.0 - - 10 - - - -
31/11:30am 21.1 NE 13 19 1009.7 - 0.0 - - 10 - - - -
31/11:00am 20.9 NE 11 17 1010.3 - 0.0 - - 10 - - - -
31/10:30am 21.0 NE 9 15 1011.0 - 0.0 - - 10 - - - -
31/10:00am 20.9 N 7 14 1011.5 - 0.0 - - 10 - - - -
31/09:30am 20.4 NNW 4 9 1011.9 - 0.0 - - 10 - - - -
31/09:00am 19.7 NW 8 11 1012.4 - 0.0 - Mostly clear 10 - - - -
31/08:30am 17.8 NW 6 8 1012.6 - 0.0 - Partly cloudy 10 - - - -
31/08:00am 17.2 NW 7 10 1012.8 - 0.0 - Cloudy 10 - - - -
31/07:30am 15.9 CALM 0 0 1012.7 - 0.0 - Cloudy 10 - - - -
31/07:00am 15.2 CALM 0 0 1012.7 - 0.0 - Partly cloudy 10 - - - -
31/06:30am 14.6 CALM 0 0 1012.7 - 0.0 - Cloudy 10 - - - -
31/06:00am 14.3 CALM 0 0 1012.6 - 0.0 - Mostly cloudy 10 - - - -
31/05:30am 14.3 CALM 0 0 1012.6 - 0.0 - Cloudy 10 - - - -
31/05:00am 14.1 CALM 0 0 1012.7 - 0.0 - Partly cloudy 10 - - - -
31/04:30am 13.9 CALM 0 0 1012.7 - 0.0 - Partly cloudy 10 - - - -
31/04:00am 13.7 CALM 0 0 1013.0 - 0.0 - Partly cloudy 10 - - - -
31/03:30am 13.9 CALM 0 0 1013.2 - 0.0 - Partly cloudy 10 - - - -
31/03:00am 13.7 CALM 0 0 1013.2 - 0.0 - Partly cloudy 10 - - - -
31/02:30am 14.0 CALM 0 0 1013.5 - 0.0 - Partly cloudy 10 - - - -
31/02:00am 14.1 CALM 0 0 1013.8 - 0.0 - Partly cloudy 10 - - - -
31/01:30am 14.0 CALM 0 0 1014.2 - 0.0 - Partly cloudy 10 - - - -
31/01:00am 13.7 CALM 0 0 1014.6 - 0.0 - Partly cloudy 10 - - - -
31/12:30am 13.6 CALM 0 0 1014.8 - 0.0 - Partly cloudy 10 - - - -
31/12:00am 13.4 CALM 0 0 1015.0 - 0.0 - Cloudy 10 - - - -
 
Date/Time
EDT
Temp

°C
Wind Pressure Rain
since 9am
mm
Weather Cloud Vis
km
Sea
Height
m
Swell
Dir
 
Speed
knots
Gust
knots
hPa Trend Height
m
Period
s
Dir
30/11:30pm 12.9 CALM 0 0 1015.0 - 0.0 - Partly cloudy 10 - - - -
30/11:00pm 12.4 CALM 0 0 1015.2 - 0.0 - Partly cloudy 10 - - - -
30/10:30pm 13.3 NW 3 4 1015.5 - 0.0 - Partly cloudy 10 - - - -
30/10:00pm 13.6 CALM 0 0 1015.5 - 0.0 - Partly cloudy 10 - - - -
30/09:30pm 14.5 CALM 0 0 1015.3 - 0.0 - - 10 - - - -
30/09:00pm 14.2 CALM 0 0 1015.2 - 0.0 - - 10 - - - -
30/08:30pm 15.5 SSE 3 7 1014.9 - 0.0 - - 10 - - - -
30/08:00pm 15.8 SSE 6 10 1014.6 - 0.0 - - 10 - - - -
30/07:30pm 16.2 SE 8 13 1014.1 - 0.0 - - 10 - - - -
30/07:00pm 16.6 SE 10 13 1013.7 - 0.0 - - 10 - - - -
30/06:30pm 17.3 SE 9 17 1013.3 - 0.0 - - 10 - - - -
30/06:00pm 17.8 SE 11 15 1012.7 - 0.0 - - 10 - - - -
30/05:30pm 18.2 SE 10 14 1012.4 - 0.0 - - 10 - - - -
30/05:00pm 18.4 SE 10 15 1012.1 - 0.0 - - 10 - - - -
30/04:30pm 19.1 SE 9 14 1012.1 - 0.0 - - 10 - - - -
30/04:00pm 20.0 SE 8 11 1011.9 - 0.0 - - 10 - - - -
30/03:30pm 19.9 ESE 8 12 1011.9 - 0.0 - - 10 - - - -
30/03:00pm 20.4 ESE 8 11 1012.1 - 0.0 - - 10 - - - -
30/02:30pm 20.1 ESE 8 12 1012.3 - 0.0 - - 10 - - - -
30/02:00pm 19.6 SE 10 13 1012.4 - 0.0 - - 10 - - - -
30/01:30pm 20.2 ESE 9 13 1012.5 - 0.0 - - 10 - - - -
30/01:00pm 19.6 ESE 8 12 1012.6 - 0.0 - - 10 - - - -
30/12:30pm 19.8 E 7 11 1012.8 - 0.0 - - 10 - - - -
30/12:00pm 20.0 ESE 8 12 1013.0 - 0.0 - - 10 - - - -
30/11:30am 19.2 ESE 7 11 1013.3 - 0.0 - - 10 - - - -
30/11:00am 18.8 ESE 7 10 1013.7 - 0.0 - - 10 - - - -
30/10:30am 17.9 ESE 7 10 1013.9 - 0.0 - - 10 - - - -
30/10:00am 18.1 ESE 6 8 1013.8 - 0.0 - - 10 - - - -
30/09:30am 17.7 ESE 6 9 1013.9 - 0.0 - - 10 - - - -
30/09:00am 17.5 N 1 5 1014.2 - 0.0 - - 10 - - - -
30/08:30am 14.8 CALM 0 0 1014.1 - 0.0 - - 10 - - - -
30/08:00am 13.4 CALM 0 0 1014.2 - 0.0 - - 10 - - - -
30/07:30am 13.2 CALM 0 0 1014.0 - 0.0 - - 10 - - - -
30/07:00am 12.2 CALM 0 0 1014.0 - 0.0 - - 10 - - - -
30/06:30am 11.7 WNW 4 5 1014.1 - 0.0 - - 10 - - - -
30/06:00am 11.2 WSW 2 5 1013.9 - 0.0 - - 10 - - - -
30/05:30am 11.1 W 1 6 1014.0 - 0.0 - - 10 - - - -
30/05:00am 11.0 CALM 0 0 1014.0 - 0.0 - - 10 - - - -
30/04:30am 11.3 CALM 0 0 1014.1 - 0.0 - - 10 - - - -
30/04:00am 12.0 CALM 0 0 1014.3 - 0.0 - - 10 - - - -
30/03:30am 11.5 CALM 0 0 1014.6 - 0.0 - - 10 - - - -
30/03:00am 12.8 CALM 0 0 1014.8 - 0.0 - Mostly clear 10 - - - -
30/02:30am 13.3 CALM 0 0 1015.0 - 0.0 - Partly cloudy 10 - - - -
30/02:00am 14.5 CALM 0 0 1015.2 - 0.0 - Partly cloudy 10 - - - -
30/01:30am 14.9 CALM 0 0 1015.5 - 0.0 - Partly cloudy 10 - - - -
30/01:00am 15.2 CALM 0 0 1015.8 - 0.0 - Partly cloudy 10 - - - -
30/12:30am 15.4 CALM 0 0 1016.0 - 0.0 - Partly cloudy 10 - - - -
30/12:00am 15.6 CALM 0 0 1016.2 - 0.0 - Partly cloudy 10 - - - -
 
Date/Time
EDT
Temp

°C
Wind Pressure Rain
since 9am
mm
Weather Cloud Vis
km
Sea
Height
m
Swell
Dir
 
Speed
knots
Gust
knots
hPa Trend Height
m
Period
s
Dir
29/11:30pm 15.7 CALM 0 0 1016.3 - 0.0 - Cloudy 10 - - - -
29/11:00pm 15.9 CALM 0 0 1016.5 - 0.0 - Cloudy 10 - - - -
29/10:30pm 16.1 CALM 0 0 1016.7 - 0.0 - Cloudy 10 - - - -
29/10:00pm 16.4 NNW 1 5 1016.7 - 0.0 - Cloudy 10 - - - -
29/09:30pm 16.4 N 2 6 1016.8 - 0.0 - Cloudy 10 - - - -
29/09:00pm 16.3 ENE 4 6 1016.7 - 0.0 - Cloudy 10 - - - -
29/08:30pm 16.2 ENE 4 7 1016.5 - 0.0 - Cloudy 10 - - - -
29/08:00pm 15.8 ENE 2 5 1016.3 - 0.0 - Cloudy 10 - - - -
29/07:30pm 15.8 E 4 7 1016.2 - 0.0 - Cloudy 10 - - - -
29/07:00pm 16.0 ESE 5 7 1015.9 - 0.0 - Cloudy 10 - - - -
29/06:30pm 16.3 E 5 7 1015.8 - 0.0 - Partly cloudy 10 - - - -
29/06:00pm 17.1 E 5 9 1015.8 - 0.0 - - 10 - - - -
29/05:30pm 17.4 E 6 9 1015.7 - 0.0 - - 10 - - - -
29/05:00pm 17.5 ESE 7 10 1015.5 - 0.0 - - 10 - - - -
29/04:30pm 18.0 E 7 10 1015.6 - 0.0 - - 10 - - - -
29/04:00pm 18.5 E 7 11 1015.5 - 0.0 - - 10 - - - -
29/03:30pm 18.4 E 8 12 1015.5 - 0.0 - - 10 - - - -
29/03:00pm 18.6 E 8 12 1015.7 - 0.0 - - 10 - - - -
29/02:30pm 18.9 E 8 13 1015.9 - 0.0 - - 10 - - - -
29/02:00pm 18.3 E 9 12 1016.1 - 0.0 - - 10 - - - -
29/01:30pm 19.1 E 8 13 1016.3 - 0.0 - - 10 - - - -
29/01:00pm 19.1 E 8 13 1016.2 - 0.0 - - 10 - - - -
29/12:30pm 18.7 E 9 13 1016.4 - 0.0 - - 10 - - - -
29/12:00pm 18.7 E 7 11 1016.8 - 0.0 - - 10 - - - -
29/11:00am 17.8 SE 10 12 1017.3 - 0.0 - - 10 - - - -
29/10:30am 17.8 E 8 12 1017.6 - 0.0 - - 10 - - - -
29/10:00am 17.9 E 7 10 1017.4 - 0.0 - - 10 - - - -
29/09:30am 17.3 ESE 6 10 1017.4 - 0.0 - - 10 - - - -

Other Formats:

Comma delimited format used in spreadsheet applications
http://www.bom.gov.au/fwo/IDN60701/IDN60701.95929.axf

JavaScript Object Notation format (JSON) in row-major order
http://www.bom.gov.au/fwo/IDN60701/IDN60701.95929.json